Time;durP1;ratioP1;P1;durP2;ratioP2;P2;SDS_P1;SDS_P2;PMS_P1;PMS_P2;Temp;Humidity;BMP_temperature;BMP_pressure;BME280_temperature;BME280_humidity;BME280_pressure;Samples;Min_cycle;Max_cycle;Signal;HPM_P1;HPM_P2
2021/06/19 00:01:35;;;;;;;;;;;;;;;30.64;55.20;100963.41;5087490;27;66223;-36
2021/06/19 00:04:06;;;;;;;;;;;;;;;30.67;55.94;100967.56;5081620;27;69782;-36
2021/06/19 00:06:37;;;;;;;;;;;;;;;30.70;55.32;100959.84;5083823;27;66654;-35
2021/06/19 00:09:07;;;;;;;;;;;;;;;30.73;55.60;100962.13;5092691;27;69810;-38
2021/06/19 00:11:37;;;;;;;;;;;;;;;30.73;56.55;100972.13;5088140;27;66218;-37
2021/06/19 00:14:07;;;;;;;;;;;;;;;30.78;56.36;100976.88;5086593;27;69189;-37
2021/06/19 00:16:37;;;;;;;;;;;;;;;30.79;56.93;100975.84;5091687;27;66155;-37
2021/06/19 00:19:06;;;;;;;;;;;;;;;30.82;56.22;100975.44;5091911;27;68693;-36
2021/06/19 00:21:37;;;;;;;;;;;;;;;30.85;56.82;100980.41;5092671;27;65542;-37
2021/06/19 00:24:07;;;;;;;;;;;;;;;30.87;56.70;100979.16;5085293;27;70199;-37
2021/06/19 00:26:38;;;;;;;;;;;;;;;30.89;57.25;100982.44;5091698;27;64981;-38
2021/06/19 00:29:08;;;;;;;;;;;;;;;30.92;56.76;100986.59;5089818;27;70298;-37
2021/06/19 00:31:37;;;;;;;;;;;;;;;30.94;57.41;100995.34;5088231;27;64252;-37
2021/06/19 00:34:07;;;;;;;;;;;;;;;30.97;57.45;100994.09;5091184;27;69768;-37
2021/06/19 00:36:37;;;;;;;;;;;;;;;30.99;59.25;100987.41;5086979;27;65680;-37
2021/06/19 00:39:08;;;;;;;;;;;;;;;31.04;60.17;100990.28;5087704;27;68983;-37
2021/06/19 01:33:47;;;;;;;18.88;10.98;;;;;;;30.99;66.63;100989.28;5107749;27;781907;-41
2021/06/19 01:36:22;;;;;;;15.15;10.90;;;;;;;31.13;65.98;101005.22;5130904;27;70317;-41
2021/06/19 01:38:55;;;;;;;22.13;11.00;;;;;;;31.21;65.92;101012.25;5121103;27;66699;-42
2021/06/19 01:41:32;;;;;;;14.02;10.45;;;;;;;31.26;65.84;101015.16;5126129;27;70077;-42
2021/06/19 01:44:22;;;;;;;26.33;11.82;;;;;;;31.29;65.38;101009.28;5121406;27;65809;-42
2021/06/19 01:47:11;;;;;;;32.25;10.10;;;;;;;31.39;64.38;101015.06;5120691;27;69977;-43
2021/06/19 01:50:22;;;;;;;47.28;11.90;;;;;;;31.50;63.59;101010.81;5080401;27;66627;-41
2021/06/19 01:55:45;;;;;;;28.58;9.98;;;;;;;31.63;63.36;101009.03;5083909;27;66049;-41
2021/06/19 01:58:17;;;;;;;25.00;9.57;;;;;;;31.70;63.47;101005.19;5084169;27;69935;-41
2021/06/19 02:01:08;;;;;;;19.70;9.10;;;;;;;31.70;63.86;101013.34;5090629;27;65228;-41
2021/06/19 02:03:40;;;;;;;15.88;8.95;;;;;;;31.78;63.08;101001.38;5089677;27;69671;-42
2021/06/19 02:06:12;;;;;;;14.70;8.95;;;;;;;31.86;63.03;101003.81;5088379;27;65400;-40
2021/06/19 02:08:55;;;;;;;16.20;9.55;;;;;;;31.89;62.77;100988.97;5090339;27;69736;-41
2021/06/19 02:11:45;;;;;;;21.75;9.00;;;;;;;31.91;63.24;101001.28;5091938;27;65094;-40
2021/06/19 02:14:16;;;;;;;14.55;8.45;;;;;;;31.98;62.26;101002.06;5091126;27;69988;-41
2021/06/19 02:16:47;;;;;;;15.37;8.43;;;;;;;32.01;62.91;101001.59;5091491;27;65519;-40
2021/06/19 02:19:55;;;;;;;15.85;8.23;;;;;;;31.92;62.49;100974.97;5090457;27;70544;-41
2021/06/19 02:22:26;;;;;;;19.05;9.20;;;;;;;32.08;62.37;101000.69;5053605;27;65180;-41
2021/06/19 02:24:57;;;;;;;19.90;8.60;;;;;;;32.12;62.31;100991.03;5109789;27;70396;-51
2021/06/19 02:27:29;;;;;;;27.38;8.43;;;;;;;32.17;61.31;100993.91;5125263;27;65996;-40
2021/06/19 02:30:01;;;;;;;14.82;7.78;;;;;;;32.20;61.25;100991.56;5119988;27;69308;-43
2021/06/19 02:32:31;;;;;;;;;;;;;;;32.09;61.88;100988.78;5124182;27;65220;-41
2021/06/19 02:35:04;;;;;;;15.50;8.98;;;;;;;32.25;60.95;100994.41;5109893;27;69277;-47
2021/06/19 02:37:36;;;;;;;22.15;8.55;;;;;;;32.27;60.91;100994.22;5107016;27;65293;-41
2021/06/19 02:40:08;;;;;;;17.00;9.05;;;;;;;32.29;61.08;100992.09;5100979;27;70030;-40
2021/06/19 02:42:40;;;;;;;15.30;8.55;;;;;;;32.33;60.63;100982.44;5107085;27;66128;-40
2021/06/19 02:45:12;;;;;;;25.85;8.25;;;;;;;32.36;60.76;100976.53;5100235;27;68697;-40
2021/06/19 02:47:47;;;;;;;13.00;8.45;;;;;;;32.44;60.26;100973.50;5106323;27;66040;-44
2021/06/19 02:50:37;;;;;;;16.70;9.20;;;;;;;32.27;60.09;100939.91;5100412;27;69933;-43
2021/06/19 02:53:11;;;;;;;21.35;8.45;;;;;;;32.51;60.07;100973.44;5106206;27;66153;-42
2021/06/19 02:56:01;;;;;;;19.00;8.52;;;;;;;32.49;60.49;100957.41;5099867;27;69203;-42
2021/06/19 02:58:33;;;;;;;15.27;9.40;;;;;;;32.49;60.30;100941.09;5102975;27;66085;-42
2021/06/19 03:01:08;;;;;;;82.57;15.67;;;;;;;32.54;60.46;100950.44;5108806;27;69678;-50
2021/06/19 03:03:48;;;;;;;69.57;15.90;;;;;;;32.56;60.69;100942.91;5106066;27;66004;-42
2021/06/19 03:06:38;;;;;;;61.00;13.55;;;;;;;32.61;60.16;100945.75;5102545;27;69691;-43
2021/06/19 03:09:28;;;;;;;137.65;23.23;;;;;;;32.59;59.99;100947.88;5101004;27;65928;-43
2021/06/19 03:11:59;;;;;;;115.45;18.42;;;;;;;32.60;59.75;100938.69;5099576;27;70283;-41
2021/06/19 03:14:32;;;;;;;64.97;13.32;;;;;;;32.53;59.38;100916.22;5104298;27;65140;-42
2021/06/19 03:20:14;;;;;;;19.75;8.52;;;;;;;32.77;58.87;100942.38;5103249;27;64970;-43
2021/06/19 03:22:48;;;;;;;21.17;7.72;;;;;;;32.82;58.36;100942.53;5104342;27;69394;-43
2021/06/19 03:25:25;;;;;;;14.15;6.93;;;;;;;32.88;57.55;100941.59;5108004;27;66180;-42
2021/06/19 03:27:59;;;;;;;12.23;6.07;;;;;;;32.83;57.11;100903.41;5099288;27;69197;-42
2021/06/19 03:30:33;;;;;;;8.60;5.45;;;;;;;32.50;56.97;100849.63;5101427;27;65529;-49
2021/06/19 03:36:13;;;;;;;17.08;6.35;;;;;;;32.98;56.73;100913.00;5108531;27;64946;-42
2021/06/19 03:41:52;;;;;;;19.00;5.72;;;;;;;33.08;56.35;100907.88;5105434;27;66271;-45
2021/06/19 03:47:56;;;;;;;7.63;5.20;;;;;;;33.08;56.85;100914.13;5104149;27;65632;-44
2021/06/19 03:50:29;;;;;;;11.77;6.18;;;;;;;33.06;57.03;100915.41;5104342;27;70264;-42
2021/06/19 03:53:44;;;;;;;10.85;6.03;;;;;;;33.01;56.95;100905.25;5055062;28;65626;-43
2021/06/19 03:59:23;;;;;;;8.32;5.90;;;;;;;33.05;56.88;100902.91;5053836;28;65963;-43
2021/06/19 04:02:07;;;;;;;11.85;5.80;;;;;;;33.07;56.82;100906.19;5053323;28;69247;-42
2021/06/19 04:05:06;;;;;;;12.10;5.63;;;;;;;33.05;56.64;100906.44;5049297;28;65361;-42
2021/06/19 04:07:38;;;;;;;9.75;6.47;;;;;;;33.20;56.33;100889.66;4956851;28;70959;-42
2021/06/19 04:10:12;;;;;;;11.98;6.20;;;;;;;33.29;56.40;100904.56;4952767;28;65446;-43
2021/06/19 04:12:44;;;;;;;12.40;5.18;;;;;;;33.33;56.19;100900.31;4954617;28;69474;-43
2021/06/19 04:15:16;;;;;;;;;;;;;;;33.12;56.59;100901.72;4955422;28;65621;-42
2021/06/19 04:17:48;;;;;;;7.47;5.20;;;;;;;33.34;56.05;100891.06;4955299;28;70011;-42
2021/06/19 04:20:37;;;;;;;6.35;5.53;;;;;;;33.48;55.77;100896.28;4953750;28;65546;-43
2021/06/19 04:25:59;;;;;;;17.17;7.05;;;;;;;33.52;55.41;100892.03;4954741;28;65140;-42
2021/06/19 04:28:45;;;;;;;19.23;7.63;;;;;;;33.44;55.92;100876.91;4953886;28;69789;-44
2021/06/19 04:31:37;;;;;;;17.58;9.18;;;;;;;33.60;56.31;100894.44;4927791;28;65432;-43
2021/06/19 04:34:10;;;;;;;21.98;9.30;;;;;;;33.62;56.27;100892.28;4953072;28;68997;-43
2021/06/19 04:36:43;;;;;;;18.00;8.63;;;;;;;33.63;56.19;100883.06;4938820;28;65808;-42
2021/06/19 04:39:15;;;;;;;19.90;8.63;;;;;;;33.65;56.40;100880.91;4946502;28;69727;-44
2021/06/19 04:41:55;;;;;;;27.50;9.13;;;;;;;33.44;55.91;100841.56;4953608;28;66269;-42
2021/06/19 04:44:40;;;;;;;16.45;8.80;;;;;;;33.71;55.72;100871.81;4997503;28;70018;-42
2021/06/19 04:47:29;;;;;;;13.77;8.25;;;;;;;33.59;55.82;100854.66;5094827;27;65846;-42
2021/06/19 04:50:02;;;;;;;22.00;8.80;;;;;;;33.60;54.74;100867.22;5105377;27;69890;-41
2021/06/19 04:52:35;;;;;;;16.85;8.05;;;;;;;33.46;53.09;100877.50;5113964;27;65288;-41
2021/06/19 04:55:07;;;;;;;9.82;7.82;;;;;;;33.13;51.05;100867.22;5101086;27;69019;-41
2021/06/19 04:57:40;;;;;;;11.15;7.70;;;;;;;32.92;49.82;100865.88;5099498;27;65128;-42
2021/06/19 05:00:48;;;;;;;13.85;7.72;;;;;;;32.58;48.99;100865.56;5103056;27;70386;-41
2021/06/19 05:06:28;;;;;;;12.43;6.72;;;;;;;32.19;48.31;100856.09;5104973;27;70100;-42
2021/06/19 05:09:00;;;;;;;9.68;6.90;;;;;;;32.02;46.63;100851.31;5108206;27;65934;-41
2021/06/19 05:12:02;;;;;;;6.97;6.20;;;;;;;31.76;45.88;100840.75;5042014;28;69853;-42
2021/06/19 05:14:35;;;;;;;11.90;6.38;;;;;;;31.73;45.35;100852.03;5045437;28;66550;-41
2021/06/19 05:17:06;;;;;;;6.50;5.80;;;;;;;31.41;45.48;100822.38;5045694;28;69659;-41
2021/06/19 05:19:37;;;;;;;6.57;5.97;;;;;;;31.54;44.67;100838.50;5045031;28;64681;-42
2021/06/19 05:22:09;;;;;;;5.70;5.25;;;;;;;31.48;45.08;100839.41;5026551;28;69546;-43
2021/06/19 05:24:43;;;;;;;5.80;5.30;;;;;;;31.43;44.63;100836.56;5044088;28;65818;-41
2021/06/19 05:27:33;;;;;;;6.95;5.65;;;;;;;31.34;44.36;100835.13;5043350;28;70342;-38
2021/06/19 05:30:22;;;;;;;;;;;;;;;31.03;44.67;100842.31;5043044;28;64857;-39
2021/06/19 05:32:54;;;;;;;5.97;5.30;;;;;;;31.19;44.46;100843.63;5040703;28;70120;-39
2021/06/19 05:35:49;;;;;;;5.90;5.30;;;;;;;30.96;43.58;100803.66;5040854;28;65235;-40
2021/06/19 05:38:21;;;;;;;6.75;4.38;;;;;;;31.08;43.78;100823.53;5032607;28;69466;-39
2021/06/19 05:41:11;;;;;;;7.90;4.72;;;;;;;31.05;44.66;100823.97;5045560;28;66154;-40
2021/06/19 05:44:19;;;;;;;5.10;4.63;;;;;;;31.05;43.47;100826.69;5086865;27;69038;-39
2021/06/19 05:46:50;;;;;;;6.30;4.75;;;;;;;31.04;43.44;100824.22;5103220;27;65001;-39
2021/06/19 05:49:22;;;;;;;4.75;4.25;;;;;;;30.99;43.20;100814.03;5111514;27;69932;-39
2021/06/19 05:52:11;;;;;;;4.78;4.40;;;;;;;30.92;42.80;100802.41;5100431;27;65161;-39
2021/06/19 05:54:43;;;;;;;8.02;4.18;;;;;;;30.91;42.41;100795.34;5104426;27;69162;-39
2021/06/19 05:57:16;;;;;;;4.70;4.32;;;;;;;30.91;42.30;100795.34;5105235;27;66575;-39
2021/06/19 05:59:48;;;;;;;6.53;4.40;;;;;;;30.85;41.67;100774.56;5100872;27;69817;-39
2021/06/19 06:02:39;;;;;;;5.00;4.63;;;;;;;30.78;41.70;100784.59;5106606;27;65831;-40
2021/06/19 06:05:12;;;;;;;5.22;3.60;;;;;;;30.79;42.38;100770.03;5104047;27;69332;-40
2021/06/19 06:07:43;;;;;;;4.05;3.75;;;;;;;30.82;41.32;100780.44;5106489;27;65773;-38
2021/06/19 06:10:14;;;;;;;4.07;3.70;;;;;;;30.77;41.54;100769.41;5110838;27;70523;-39
2021/06/19 06:12:46;;;;;;;3.58;3.28;;;;;;;30.75;41.83;100764.22;5104856;27;65251;-38
2021/06/19 06:15:18;;;;;;;4.23;3.83;;;;;;;30.76;41.24;100759.63;5109956;27;70044;-38
2021/06/19 06:18:07;;;;;;;6.15;4.13;;;;;;;30.71;41.29;100769.25;5110667;27;66305;-38
2021/06/19 06:20:39;;;;;;;4.73;3.77;;;;;;;30.70;41.37;100777.56;5105403;27;70014;-39
2021/06/19 06:23:11;;;;;;;4.88;4.47;;;;;;;30.67;41.22;100762.63;5108055;27;66464;-38
2021/06/19 06:25:42;;;;;;;4.90;4.23;;;;;;;30.65;41.14;100747.66;5105120;27;69445;-38
2021/06/19 06:28:13;;;;;;;3.50;3.30;;;;;;;30.64;41.29;100730.56;5101501;27;65761;-39
2021/06/19 06:33:53;;;;;;;4.95;3.70;;;;;;;30.72;41.42;100716.75;5103056;27;65861;-38
2021/06/19 06:36:24;;;;;;;5.75;4.00;;;;;;;30.79;40.18;100711.28;5109958;27;69734;-38
2021/06/19 06:39:01;;;;;;;5.65;3.75;;;;;;;30.84;40.73;100697.06;5111268;27;65065;-38
2021/06/19 06:41:41;;;;;;;9.73;3.47;;;;;;;30.90;40.13;100685.38;5113831;27;70195;-38
2021/06/19 06:44:53;;;;;;;4.93;4.00;;;;;;;30.95;40.03;100677.38;5067344;28;66724;-38
2021/06/19 06:48:01;;;;;;;4.03;3.65;;;;;;;30.94;40.08;100659.47;5051972;28;69823;-39
2021/06/19 06:50:51;;;;;;;4.30;3.90;;;;;;;31.07;39.93;100664.75;5052538;28;66492;-39
2021/06/19 06:53:54;;;;;;;3.83;3.45;;;;;;;31.02;39.67;100651.03;5050478;28;70155;-39
2021/06/19 06:56:27;;;;;;;3.47;3.17;;;;;;;31.16;39.92;100647.09;4987743;28;65904;-40
2021/06/19 06:59:10;;;;;;;3.58;3.28;;;;;;;31.22;39.11;100639.13;5166491;27;43753;-40
2021/06/19 07:01:42;;;;;;;4.00;3.65;;;;;;;31.28;39.78;100644.44;5159329;27;69041;-39
2021/06/19 07:04:13;;;;;;;3.13;2.83;;;;;;;31.30;39.33;100642.34;5161082;27;66507;-40
2021/06/19 07:06:44;;;;;;;4.65;3.65;;;;;;;31.33;39.04;100638.34;5155951;27;69082;-41
2021/06/19 07:09:51;;;;;;;3.53;3.22;;;;;;;31.34;38.77;100643.56;5136274;27;66246;-41
2021/06/19 07:12:22;;;;;;;5.45;3.40;;;;;;;31.38;39.14;100642.06;5108704;27;69093;-39
2021/06/19 07:14:54;;;;;;;4.00;3.38;;;;;;;31.22;39.10;100603.91;5106318;27;66146;-39
2021/06/19 07:17:44;;;;;;;3.17;2.90;;;;;;;31.41;39.46;100632.66;5104129;27;70383;-39
2021/06/19 07:21:09;;;;;;;3.15;2.95;;;;;;;31.34;38.98;100618.31;5080947;27;65379;-40
2021/06/19 07:23:58;;;;;;;4.25;3.42;;;;;;;31.39;39.27;100610.34;5049502;27;69693;-40
2021/06/19 07:26:31;;;;;;;3.88;3.58;;;;;;;31.38;39.33;100608.72;5084388;27;66303;-40
2021/06/19 07:33:30;;;;;;;4.72;3.03;;;;;;;31.35;38.82;100596.41;5063072;28;66635;-41
2021/06/19 07:36:19;;;;;;;4.65;3.10;;;;;;;31.39;39.10;100607.66;5060241;28;70761;-40
2021/06/19 07:38:50;;;;;;;3.10;2.87;;;;;;;31.35;38.87;100620.00;5066712;28;66183;-44
2021/06/19 07:41:36;;;;;;;2.90;2.70;;;;;;;31.39;38.68;100634.75;5061870;28;69991;-39
2021/06/19 07:47:40;;;;;;;5.43;2.83;;;;;;;31.30;38.32;100630.69;5083272;27;70838;-48
2021/06/19 07:50:16;;;;;;;4.15;3.15;;;;;;;31.28;38.67;100605.69;5072944;27;67371;-39
2021/06/19 07:52:48;;;;;;;5.07;3.33;;;;;;;31.33;38.27;100603.13;5068087;27;69750;-39
2021/06/19 07:55:20;;;;;;;5.00;3.33;;;;;;;31.34;38.76;100604.75;5076547;27;65218;-39
2021/06/19 07:58:09;;;;;;;11.57;3.38;;;;;;;31.28;39.09;100605.69;5077235;27;70091;-41
2021/06/19 08:00:59;;;;;;;9.20;4.32;;;;;;;31.43;43.45;100608.03;5084542;27;66492;-37
2021/06/19 08:03:48;;;;;;;6.88;4.57;;;;;;;31.66;46.37;100591.00;5081664;27;69686;-38
2021/06/19 08:09:09;;;;;;;11.48;4.25;;;;;;;32.02;46.79;100590.84;5131272;27;69783;-37
2021/06/19 08:11:59;;;;;;;;;;;;;;;32.00;47.75;100597.56;5129683;27;66128;-37
2021/06/19 08:14:48;;;;;;;13.07;4.65;;;;;;;32.43;46.64;100590.94;5123710;27;70452;-37
2021/06/19 08:17:24;;;;;;;11.43;5.00;;;;;;;32.63;47.44;100582.44;5117506;27;66030;-38
2021/06/19 08:20:24;;;;;;;6.53;4.88;;;;;;;32.81;47.79;100589.59;5041143;27;69295;-37
2021/06/19 08:23:13;;;;;;;8.00;5.10;;;;;;;32.98;47.96;100605.97;5104226;27;66095;-39
2021/06/19 08:28:52;;;;;;;5.85;5.13;;;;;;;33.23;47.83;100600.22;5116858;27;65983;-38
2021/06/19 08:32:00;;;;;;;11.05;6.80;;;;;;;33.34;47.78;100602.88;5119217;27;69658;-38
2021/06/19 08:34:50;;;;;;;9.32;7.18;;;;;;;33.46;47.32;100599.28;5114043;27;66161;-38
2021/06/19 08:37:39;;;;;;;8.80;7.30;;;;;;;33.52;47.74;100604.63;5119897;27;70135;-38
2021/06/19 08:40:11;;;;;;;43.65;21.63;;;;;;;33.66;47.69;100602.41;5119955;27;65986;-37
2021/06/19 08:42:43;;;;;;;40.60;18.80;;;;;;;33.72;47.94;100609.59;5121330;27;69129;-37
2021/06/19 08:45:14;;;;;;;114.55;31.92;;;;;;;33.79;48.09;100610.25;5100544;27;66408;-38
2021/06/19 08:47:46;;;;;;;94.85;32.45;;;;;;;33.85;48.85;100602.16;5103246;27;69868;-37
2021/06/19 08:56:32;;;;;;;96.40;56.15;;;;;;;33.74;50.46;100623.78;5120144;27;65842;-38
2021/06/19 09:02:11;;;;;;;107.82;65.50;;;;;;;33.66;51.76;100643.22;5118161;27;65977;-38
2021/06/19 09:05:13;;;;;;;92.82;56.97;;;;;;;33.63;52.40;100643.69;5117091;27;70535;-38
2021/06/19 09:07:50;;;;;;;65.57;32.88;;;;;;;33.44;51.44;100590.56;5088059;27;66199;-37
2021/06/19 09:10:35;;;;;;;48.83;27.30;;;;;;;33.68;51.25;100638.31;5090395;27;69179;-39
2021/06/19 09:19:33;;;;;;;26.52;18.33;;;;;;;33.65;51.99;100640.72;5113914;27;66032;-37
2021/06/19 09:22:17;;;;;;;31.50;15.75;;;;;;;33.66;50.87;100626.88;5120636;27;69750;-38
2021/06/19 09:24:50;;;;;;;30.67;15.10;;;;;;;33.65;51.38;100627.94;5116669;27;65155;-37
2021/06/19 09:30:49;;;;;;;23.90;15.10;;;;;;;33.59;54.20;100626.22;5119769;27;66264;-38
2021/06/19 09:33:39;;;;;;;19.98;14.60;;;;;;;33.65;54.02;100616.25;5100165;27;69053;-39
2021/06/19 09:36:11;;;;;;;20.88;13.55;;;;;;;33.60;54.78;100600.69;5121234;27;65255;-38
2021/06/19 09:39:01;;;;;;;18.15;13.27;;;;;;;33.35;54.66;100549.38;5116079;27;69318;-36
2021/06/19 09:44:50;;;;;;;21.08;14.35;;;;;;;33.64;55.29;100595.56;5101281;27;69952;-38
2021/06/19 09:50:32;;;;;;;22.17;15.88;;;;;;;33.65;55.61;100608.91;5117588;27;70084;-37
2021/06/19 09:53:32;;;;;;;29.67;16.70;;;;;;;33.45;56.13;100608.53;5103644;27;65901;-37
2021/06/19 09:56:08;;;;;;;35.72;16.48;;;;;;;33.67;55.96;100649.47;5116371;27;70437;-37
2021/06/19 09:58:48;;;;;;;26.13;17.17;;;;;;;33.68;56.26;100665.53;5114565;27;65173;-38
2021/06/19 10:01:40;;;;;;;39.80;19.15;;;;;;;33.65;56.22;100663.31;5119065;27;69262;-39
2021/06/19 10:04:15;;;;;;;48.15;19.38;;;;;;;33.66;55.92;100648.66;5113441;27;67220;-39
2021/06/19 10:10:32;;;;;;;33.28;19.92;;;;;;;33.69;56.06;100669.91;5115981;27;66224;-39
2021/06/19 10:13:03;;;;;;;31.83;21.65;;;;;;;33.71;56.03;100673.22;5115515;27;69281;-38
2021/06/19 10:15:34;;;;;;;41.33;24.35;;;;;;;33.78;55.35;100676.59;5115082;27;66021;-38
2021/06/19 10:20:57;;;;;;;36.83;24.08;;;;;;;33.85;55.69;100698.22;5123344;27;66650;-39
2021/06/19 10:23:28;;;;;;;;;;;;;;;33.60;57.30;100698.59;5115662;27;70195;-38
2021/06/19 10:26:37;;;;;;;40.67;25.65;;;;;;;33.69;56.05;100659.03;5100477;27;65990;-39
2021/06/19 10:29:30;;;;;;;49.45;28.23;;;;;;;33.91;55.69;100671.94;5115701;27;69852;-39
2021/06/19 10:35:12;;;;;;;55.40;31.70;;;;;;;33.94;56.15;100682.31;5123984;27;70910;-39
2021/06/19 10:37:46;;;;;;;52.88;31.08;;;;;;;33.73;56.47;100662.91;5127369;27;66227;-38
2021/06/19 10:43:50;;;;;;;49.63;32.40;;;;;;;33.99;55.99;100706.88;5120986;27;65501;-39
2021/06/19 10:46:30;;;;;;;50.47;32.72;;;;;;;34.00;56.13;100700.38;5121799;27;69968;-38
2021/06/19 10:49:20;;;;;;;49.58;32.40;;;;;;;33.93;56.29;100705.16;5120123;27;65418;-39
2021/06/19 10:55:31;;;;;;;49.25;31.70;;;;;;;33.98;55.88;100699.78;5115479;27;66123;-38
2021/06/19 10:58:16;;;;;;;42.33;30.92;;;;;;;33.51;55.57;100629.28;5114715;27;70333;-38
2021/06/19 11:00:53;;;;;;;49.25;33.60;;;;;;;33.99;55.57;100717.75;5118167;27;65965;-38
2021/06/19 11:06:50;;;;;;;51.35;31.05;;;;;;;33.95;55.71;100722.88;5115846;27;66168;-38
2021/06/19 11:09:39;;;;;;;41.28;28.42;;;;;;;33.83;56.69;100707.69;5114487;27;69340;-38
2021/06/19 11:12:32;;;;;;;37.88;27.52;;;;;;;33.65;56.26;100673.34;5116623;27;66483;-38
2021/06/19 11:15:08;;;;;;;49.47;28.17;;;;;;;33.70;54.72;100715.09;5111574;27;69928;-37
2021/06/19 11:17:57;;;;;;;46.53;26.88;;;;;;;33.50;53.18;100731.81;5118433;27;66659;-37
2021/06/19 11:20:30;;;;;;;40.90;26.35;;;;;;;33.30;51.25;100751.25;5113089;27;70017;-37
2021/06/19 11:23:03;;;;;;;38.72;25.88;;;;;;;32.60;49.73;100673.38;5122322;27;65280;-37
2021/06/19 11:25:51;;;;;;;31.75;26.17;;;;;;;32.86;47.90;100764.41;5119616;27;69939;-36
2021/06/19 11:28:22;;;;;;;30.30;24.33;;;;;;;32.68;47.37;100756.34;5119335;27;66036;-38
2021/06/19 11:31:15;;;;;;;34.63;25.30;;;;;;;32.53;46.09;100758.72;5118610;27;69976;-38
2021/06/19 11:33:50;;;;;;;30.67;23.77;;;;;;;32.33;46.11;100759.84;5128045;27;66262;-37
2021/06/19 11:36:25;;;;;;;28.10;23.92;;;;;;;31.96;44.65;100722.00;5120525;27;69434;-37
2021/06/19 11:42:07;;;;;;;27.13;23.15;;;;;;;31.86;43.50;100756.13;5115296;27;70043;-37
2021/06/19 11:53:39;;;;;;;34.42;21.85;;;;;;;31.53;44.90;100792.63;5122510;27;69824;-37
2021/06/19 11:56:31;;;;;;;40.83;21.85;;;;;;;31.56;45.35;100782.16;5120382;27;65297;-39
2021/06/19 11:59:06;;;;;;;48.90;21.67;;;;;;;31.44;43.60;100778.56;5105048;27;70644;-38
2021/06/19 12:01:40;;;;;;;39.00;21.38;;;;;;;31.46;44.83;100798.16;5116548;27;66229;-37
2021/06/19 12:07:40;;;;;;;33.13;21.40;;;;;;;31.38;44.28;100795.75;5117242;27;66408;-37
2021/06/19 12:10:40;;;;;;;31.33;21.40;;;;;;;31.25;42.88;100788.53;5051853;28;70050;-37
2021/06/19 12:13:39;;;;;;;31.95;21.77;;;;;;;31.19;42.70;100794.88;5052955;28;65983;-37
2021/06/19 12:16:12;;;;;;;25.52;21.00;;;;;;;31.23;42.83;100796.09;5115293;27;70375;-39
2021/06/19 12:19:03;;;;;;;39.17;21.02;;;;;;;31.15;42.30;100785.53;5084998;27;66123;-38
2021/06/19 12:21:37;;;;;;;33.45;21.90;;;;;;;30.94;42.64;100762.41;5099598;27;69700;-38
2021/06/19 12:24:33;;;;;;;26.35;21.27;;;;;;;31.07;41.68;100802.91;5118288;27;66062;-37
2021/06/19 12:27:18;;;;;;;29.13;20.13;;;;;;;31.12;43.09;100786.81;5115413;27;69901;-38
2021/06/19 12:30:46;;;;;;;31.67;22.50;;;;;;;31.08;48.92;100788.28;5035581;28;65638;-38
2021/06/19 12:33:44;;;;;;;40.75;23.75;;;;;;;31.08;47.43;100801.84;4993250;28;69363;-37
2021/06/19 12:36:34;;;;;;;41.03;22.48;;;;;;;31.12;46.50;100830.16;4997680;28;66605;-41
2021/06/19 12:39:23;;;;;;;36.95;22.83;;;;;;;31.05;45.73;100829.38;4996074;28;69697;-40
2021/06/19 12:42:04;;;;;;;28.75;22.00;;;;;;;31.02;45.17;100835.25;4963167;28;64208;-40
2021/06/19 12:45:04;;;;;;;30.40;22.35;;;;;;;30.54;43.59;100773.56;4992780;28;69865;-41
2021/06/19 12:47:43;;;;;;;26.73;21.80;;;;;;;31.05;43.44;100861.91;4972526;28;65600;-40
2021/06/19 12:50:33;;;;;;;27.30;21.33;;;;;;;31.02;43.34;100856.91;5000017;28;70146;-41
2021/06/19 12:53:12;;;;;;;26.47;21.03;;;;;;;31.01;42.61;100859.84;4985299;28;66159;-40
2021/06/19 12:56:02;;;;;;;30.55;21.50;;;;;;;30.90;41.44;100854.13;4963836;28;70338;-39
2021/06/19 12:58:42;;;;;;;33.00;20.83;;;;;;;30.71;41.32;100828.81;4979284;28;66533;-38
2021/06/19 13:01:41;;;;;;;31.17;23.58;;;;;;;30.98;45.12;100874.69;4989374;28;70024;-40
2021/06/19 13:04:12;;;;;;;68.25;23.30;;;;;;;31.02;44.55;100878.59;5003317;28;66016;-41
2021/06/19 13:07:08;;;;;;;59.30;24.65;;;;;;;31.03;43.89;100877.53;5006021;28;69133;-43
2021/06/19 13:09:53;;;;;;;48.17;23.35;;;;;;;31.05;44.24;100883.56;5009733;27;66773;-41
2021/06/19 13:18:15;;;;;;;31.63;20.65;;;;;;;30.92;43.67;100905.34;5115676;27;70099;-43
2021/06/19 13:20:59;;;;;;;32.95;21.80;;;;;;;30.87;42.49;100897.03;5090054;27;65370;-43
2021/06/19 13:23:33;;;;;;;52.42;22.30;;;;;;;30.90;42.97;100892.03;5088782;27;69622;-41
2021/06/19 13:29:16;;;;;;;34.78;19.95;;;;;;;30.82;41.76;100889.59;5116693;27;69818;-41
2021/06/19 13:32:07;;;;;;;35.75;19.60;;;;;;;30.80;41.69;100890.84;5118403;27;66312;-43
2021/06/19 13:35:14;;;;;;;26.75;18.40;;;;;;;30.67;41.29;100892.59;5111315;27;70077;-43
2021/06/19 13:37:46;;;;;;;47.08;19.70;;;;;;;30.72;41.07;100879.19;5115679;27;66020;-41
2021/06/19 13:40:44;;;;;;;29.58;17.58;;;;;;;30.71;40.97;100885.69;5115581;27;69817;-45
2021/06/19 13:43:16;;;;;;;36.63;17.83;;;;;;;30.67;40.99;100881.75;5117995;27;66703;-46
2021/06/19 13:45:47;;;;;;;24.88;16.73;;;;;;;30.60;40.89;100880.97;5115011;27;69823;-41
2021/06/19 13:48:19;;;;;;;28.35;16.85;;;;;;;30.61;40.58;100892.63;5116686;27;66273;-44
2021/06/19 13:51:12;;;;;;;37.63;16.48;;;;;;;30.53;42.95;100891.00;5100107;27;69874;-43
2021/06/19 13:53:48;;;;;;;52.83;17.17;;;;;;;30.59;45.26;100890.16;5117265;27;65088;-42
2021/06/19 13:56:38;;;;;;;55.25;16.85;;;;;;;30.63;46.67;100891.34;5116106;27;69370;-41
2021/06/19 13:59:10;;;;;;;54.30;15.82;;;;;;;30.64;45.60;100876.75;5115748;27;65867;-42
2021/06/19 14:01:42;;;;;;;36.30;16.47;;;;;;;30.59;44.95;100878.47;5115348;27;69864;-42
2021/06/19 14:04:32;;;;;;;24.98;15.05;;;;;;;30.54;44.08;100871.00;5114887;27;65647;-42
2021/06/19 14:07:04;;;;;;;38.35;15.93;;;;;;;30.43;43.38;100858.19;5114346;27;69854;-42
2021/06/19 14:09:54;;;;;;;33.63;14.75;;;;;;;30.42;42.40;100873.59;5116109;27;66164;-41
2021/06/19 14:12:25;;;;;;;23.50;13.68;;;;;;;30.43;42.45;100885.25;5063690;27;69182;-43
2021/06/19 14:14:57;;;;;;;25.80;14.03;;;;;;;30.36;42.26;100879.84;5097974;27;65051;-42
2021/06/19 14:17:29;;;;;;;21.80;13.18;;;;;;;30.35;41.56;100880.09;5117335;27;70173;-42
2021/06/19 14:20:01;;;;;;;30.23;12.83;;;;;;;30.34;44.12;100886.53;5119040;27;66081;-42
2021/06/19 14:22:32;;;;;;;26.43;12.93;;;;;;;30.27;43.72;100875.75;5122925;27;69979;-42
2021/06/19 14:25:21;;;;;;;27.90;13.50;;;;;;;30.31;43.98;100886.97;5124173;27;65725;-42
2021/06/19 14:27:53;;;;;;;22.75;12.35;;;;;;;30.32;44.00;100883.22;5113594;27;68998;-41
2021/06/19 14:30:25;;;;;;;22.52;13.15;;;;;;;30.30;43.06;100879.91;5115760;27;66080;-41
2021/06/19 14:32:56;;;;;;;;;;;;;;;30.01;43.04;100871.28;5119274;27;69375;-41
2021/06/19 14:38:36;;;;;;;22.33;12.73;;;;;;;30.12;42.43;100877.88;5120261;27;70101;-41
2021/06/19 14:41:26;;;;;;;21.15;12.85;;;;;;;30.08;41.72;100876.66;5108344;27;65622;-42
2021/06/19 14:44:02;;;;;;;16.45;12.45;;;;;;;29.99;41.66;100866.06;5104748;27;70690;-41
2021/06/19 14:46:54;;;;;;;21.67;12.45;;;;;;;30.02;41.12;100875.63;5039712;28;66270;-41
2021/06/19 14:49:26;;;;;;;14.25;12.75;;;;;;;29.98;41.67;100883.34;5033176;28;69296;-41
2021/06/19 14:51:58;;;;;;;15.90;12.00;;;;;;;29.97;41.70;100891.66;5038286;28;66030;-42
2021/06/19 14:54:29;;;;;;;26.07;12.87;;;;;;;29.91;41.59;100884.41;5040263;28;70422;-41
2021/06/19 14:57:04;;;;;;;26.15;12.32;;;;;;;29.93;41.57;100890.44;5042476;28;64840;-41
2021/06/19 15:02:45;;;;;;;31.65;11.68;;;;;;;29.89;41.90;100890.03;5032646;28;66218;-41
2021/06/19 15:05:17;;;;;;;20.95;12.98;;;;;;;29.89;41.38;100883.78;5034824;28;69832;-42
2021/06/19 15:07:49;;;;;;;13.88;10.95;;;;;;;29.69;41.87;100843.31;5033265;28;65360;-43
2021/06/19 15:10:21;;;;;;;16.50;10.35;;;;;;;29.84;41.54;100877.16;5029997;28;70137;-42